createdAt,value
2023-05-03T00:02:35.800Z,10.30
2023-05-03T00:07:40.250Z,10.07
2023-05-03T00:12:44.645Z,9.64
2023-05-03T00:17:48.967Z,9.89
2023-05-03T00:22:52.309Z,10.21
2023-05-03T00:27:55.167Z,9.78
2023-05-03T00:32:59.510Z,9.86
2023-05-03T00:38:02.466Z,9.80
2023-05-03T00:43:05.915Z,9.75
2023-05-03T00:48:10.179Z,9.25
2023-05-03T00:53:13.134Z,8.68
2023-05-03T00:58:16.500Z,9.02
2023-05-03T01:03:20.990Z,8.92
2023-05-03T01:08:31.753Z,9.34
2023-05-03T01:13:44.969Z,9.58
2023-05-03T01:18:52.028Z,9.45
2023-05-03T01:24:00.873Z,9.56
2023-05-03T01:29:06.797Z,9.43
2023-05-03T01:34:19.862Z,9.47
2023-05-03T01:39:24.653Z,9.52
2023-05-03T01:44:30.300Z,9.46
2023-05-03T01:49:34.622Z,9.25
2023-05-03T01:54:37.532Z,9.23
2023-05-03T01:59:41.842Z,9.36
2023-05-03T02:04:45.725Z,9.31
2023-05-03T02:09:48.912Z,8.96
2023-05-03T02:14:54.832Z,8.94
2023-05-03T02:19:57.815Z,8.92
2023-05-03T02:25:00.748Z,8.67
2023-05-03T02:30:05.771Z,8.65
2023-05-03T02:35:14.707Z,8.15
2023-05-03T02:40:17.717Z,8.37
2023-05-03T02:45:24.325Z,8.68
2023-05-03T02:50:27.379Z,8.81
2023-05-03T02:55:30.615Z,8.89
2023-05-03T03:00:35.325Z,8.93
2023-05-03T03:05:38.324Z,8.93
2023-05-03T03:10:41.348Z,8.98
2023-05-03T03:15:47.845Z,8.90
2023-05-03T03:20:50.877Z,8.74
2023-05-03T03:25:55.845Z,8.77
2023-05-03T03:31:00.183Z,8.67
2023-05-03T03:36:03.089Z,8.35
2023-05-03T03:41:12.422Z,8.10
2023-05-03T03:46:18.087Z,8.26
2023-05-03T03:51:22.750Z,8.41
2023-05-03T03:56:26.060Z,8.58
2023-05-03T04:01:32.356Z,8.55
2023-05-03T04:06:35.393Z,8.03
2023-05-03T04:11:42.852Z,7.91
2023-05-03T04:16:47.298Z,8.36
2023-05-03T04:21:50.281Z,8.35
2023-05-03T04:26:56.130Z,7.90
2023-05-03T04:32:06.792Z,8.31
2023-05-03T04:37:10.988Z,7.98
2023-05-03T04:42:14.676Z,8.07
2023-05-03T04:47:19.887Z,8.55
2023-05-03T04:52:22.955Z,8.78
2023-05-03T04:57:26.129Z,8.74
2023-05-03T05:02:30.766Z,8.95
2023-05-03T05:07:34.716Z,9.14
2023-05-03T05:12:38.496Z,9.25
2023-05-03T05:17:47.707Z,8.65
2023-05-03T05:22:51.082Z,8.26
2023-05-03T05:27:54.852Z,8.73
2023-05-03T05:32:59.931Z,8.80
2023-05-03T05:38:03.594Z,8.25
2023-05-03T05:43:06.974Z,8.61
2023-05-03T05:48:13.754Z,8.21
2023-05-03T05:53:17.022Z,8.18
2023-05-03T05:58:27.593Z,9.19
2023-05-03T06:03:34.540Z,9.98
2023-05-03T06:08:40.031Z,9.08
2023-05-03T06:13:43.012Z,9.12
2023-05-03T06:18:49.710Z,9.62
2023-05-03T06:23:52.744Z,8.79
2023-05-03T06:28:55.720Z,9.92
2023-05-03T06:34:00.118Z,10.72
2023-05-03T06:39:04.542Z,11.07
2023-05-03T06:44:08.172Z,12.33
2023-05-03T06:49:12.421Z,10.98
2023-05-03T06:54:15.354Z,12.50
2023-05-03T06:59:18.307Z,13.21
2023-05-03T07:04:22.708Z,10.41
2023-05-03T07:09:35.297Z,13.43
2023-05-03T07:14:39.603Z,13.27
2023-05-03T07:19:43.894Z,12.86
2023-05-03T07:24:46.855Z,13.02
2023-05-03T07:29:49.770Z,14.43
2023-05-03T07:34:54.325Z,14.90
2023-05-03T07:39:57.166Z,13.61
2023-05-03T07:45:01.248Z,13.53
2023-05-03T07:50:06.462Z,12.93
2023-05-03T07:55:10.085Z,14.20
2023-05-03T08:00:14.174Z,13.39
2023-05-03T08:05:18.715Z,13.22
2023-05-03T08:10:22.042Z,13.85
2023-05-03T08:15:24.918Z,14.34
2023-05-03T08:20:29.525Z,12.22
2023-05-03T08:25:32.585Z,12.82
2023-05-03T08:30:35.832Z,13.24
2023-05-03T08:35:40.855Z,11.74
2023-05-03T08:40:45.081Z,12.29
2023-05-03T08:45:48.112Z,11.26
2023-05-03T08:50:53.821Z,11.97
2023-05-03T08:55:56.840Z,13.69
2023-05-03T09:01:05.849Z,14.13
2023-05-03T09:06:21.710Z,13.64
2023-05-03T09:11:25.960Z,13.22
2023-05-03T09:16:29.705Z,14.53
2023-05-03T09:21:34.170Z,16.03
2023-05-03T09:26:38.319Z,12.18
2023-05-03T09:32:01.033Z,13.45
2023-05-03T09:37:05.467Z,15.12
2023-05-03T09:42:13.073Z,13.79
2023-05-03T09:47:16.631Z,13.33
2023-05-03T09:52:23.176Z,14.10
2023-05-03T09:57:27.352Z,12.53
2023-05-03T10:02:32.921Z,15.03
2023-05-03T10:07:37.922Z,15.16
2023-05-03T10:12:41.402Z,15.30
2023-05-03T10:17:48.223Z,15.45
2023-05-03T10:23:15.089Z,14.56
2023-05-03T10:28:18.172Z,14.34
2023-05-03T10:33:30.955Z,14.15
2023-05-03T10:38:35.210Z,15.09
2023-05-03T10:43:46.609Z,14.92
2023-05-03T10:49:22.863Z,13.65
2023-05-03T10:54:27.096Z,15.59
2023-05-03T10:59:48.176Z,15.53
2023-05-03T11:04:53.738Z,16.05
2023-05-03T11:09:58.054Z,17.08
2023-05-03T11:15:01.024Z,17.68
2023-05-03T11:20:04.952Z,15.22
2023-05-03T11:25:11.453Z,17.50
2023-05-03T11:30:15.011Z,14.41
2023-05-03T11:35:18.184Z,15.09
2023-05-03T11:40:22.553Z,16.33
2023-05-03T11:45:26.868Z,15.87
2023-05-03T11:50:46.559Z,14.92
2023-05-03T11:55:53.264Z,15.08
2023-05-03T12:00:58.351Z,15.80
2023-05-03T12:06:02.673Z,15.63
2023-05-03T12:11:09.665Z,16.90
2023-05-03T12:16:15.587Z,15.12
2023-05-03T12:26:27.424Z,16.51
2023-05-03T12:31:30.684Z,16.91
2023-05-03T12:36:37.745Z,15.70
2023-05-03T12:42:06.259Z,15.04
2023-05-03T12:47:09.468Z,15.98
2023-05-03T12:52:36.203Z,15.16
2023-05-03T12:57:38.001Z,15.64
2023-05-03T13:03:21.034Z,15.40
2023-05-03T13:13:12.401Z,14.95
2023-05-03T13:18:15.382Z,15.31
2023-05-03T13:23:18.308Z,16.03
2023-05-03T13:28:24.847Z,15.79
2023-05-03T13:33:28.754Z,15.34
2023-05-03T13:38:31.678Z,14.36
2023-05-03T13:43:35.925Z,14.77
2023-05-03T13:48:38.886Z,15.27
2023-05-03T13:53:42.003Z,15.51
2023-05-03T13:58:46.274Z,14.65
2023-05-03T14:03:50.283Z,15.00
2023-05-03T14:08:56.977Z,14.55
2023-05-03T14:14:01.404Z,15.67
2023-05-03T14:19:05.126Z,15.63
2023-05-03T14:24:08.964Z,15.29
2023-05-03T14:29:13.253Z,15.02
2023-05-03T14:34:16.674Z,15.28
2023-05-03T14:39:19.580Z,15.48
2023-05-03T14:44:23.892Z,15.98
2023-05-03T14:49:26.887Z,16.08
2023-05-03T14:54:29.781Z,15.28
2023-05-03T14:59:34.543Z,16.24
2023-05-03T15:04:38.839Z,15.84
2023-05-03T15:09:42.312Z,15.35
2023-05-03T15:14:46.814Z,15.61
2023-05-03T15:19:50.512Z,15.02
2023-05-03T15:24:54.302Z,15.36
2023-05-03T15:29:58.699Z,15.54
2023-05-03T15:35:04.522Z,14.92
2023-05-03T15:40:10.507Z,14.85
2023-05-03T15:45:18.946Z,15.67
2023-05-03T15:50:22.119Z,15.33
2023-05-03T15:55:25.056Z,15.03
2023-05-03T16:00:30.574Z,15.42
2023-05-03T16:05:34.133Z,15.84
2023-05-03T16:10:37.050Z,16.21
2023-05-03T16:15:41.355Z,16.61
2023-05-03T16:20:44.306Z,15.47
2023-05-03T16:25:47.421Z,15.11
2023-05-03T16:30:52.926Z,14.75
2023-05-03T16:35:56.761Z,14.89
2023-05-03T16:41:00.825Z,14.54
2023-05-03T16:46:05.436Z,14.88
2023-05-03T16:51:08.397Z,14.90
2023-05-03T16:56:11.654Z,15.05
2023-05-03T17:01:17.039Z,14.93
2023-05-03T17:06:20.026Z,14.71
2023-05-03T17:11:23.404Z,14.36
2023-05-03T17:16:28.591Z,14.05
2023-05-03T17:21:34.439Z,14.19
2023-05-03T17:26:37.388Z,13.96
2023-05-03T17:31:41.863Z,13.92
2023-05-03T17:36:44.858Z,13.97
2023-05-03T17:41:47.844Z,13.63
2023-05-03T17:46:52.603Z,13.54
2023-05-03T17:51:55.586Z,13.61
2023-05-03T17:56:58.886Z,13.48
2023-05-03T18:02:03.413Z,13.59
2023-05-03T18:07:06.658Z,13.63
2023-05-03T18:12:09.577Z,13.55
2023-05-03T18:17:15.032Z,13.42
2023-05-03T18:22:17.981Z,13.25
2023-05-03T18:27:22.081Z,12.88
2023-05-03T18:32:26.452Z,12.85
2023-05-03T18:37:29.627Z,12.74
2023-05-03T18:42:32.926Z,12.52
2023-05-03T18:47:37.171Z,12.46
2023-05-03T18:52:40.731Z,12.26
2023-05-03T18:57:43.678Z,11.99
2023-05-03T19:02:48.197Z,12.00
2023-05-03T19:07:51.095Z,11.94
2023-05-03T19:12:54.318Z,11.83
2023-05-03T19:17:58.658Z,11.70
2023-05-03T19:23:01.623Z,11.49
2023-05-03T19:28:06.770Z,11.36
2023-05-03T19:33:11.068Z,11.14
2023-05-03T19:38:14.336Z,11.11
2023-05-03T19:43:17.241Z,10.94
2023-05-03T19:48:21.631Z,10.87
2023-05-03T19:53:25.081Z,10.78
2023-05-03T19:58:28.848Z,10.79
2023-05-03T20:03:33.308Z,10.63
2023-05-03T20:08:36.973Z,10.61
2023-05-03T20:13:39.847Z,10.42
2023-05-03T20:18:44.106Z,10.28
2023-05-03T20:23:48.642Z,10.18
2023-05-03T20:28:51.567Z,9.93
2023-05-03T20:33:55.905Z,9.91
2023-05-03T20:38:58.809Z,9.80
2023-05-03T20:44:01.723Z,9.58
2023-05-03T20:49:07.763Z,9.46
2023-05-03T20:54:12.571Z,9.21
2023-05-03T20:59:15.575Z,9.12
2023-05-03T21:04:19.832Z,9.12
2023-05-03T21:09:24.122Z,9.00
2023-05-03T21:14:27.811Z,8.87
2023-05-03T21:19:32.040Z,8.89
2023-05-03T21:24:35.077Z,8.70
2023-05-03T21:29:38.045Z,8.67
2023-05-03T21:34:42.282Z,8.51
2023-05-03T21:40:00.557Z,8.31
2023-05-03T21:45:05.202Z,8.34
2023-05-03T21:50:09.939Z,8.21
2023-05-03T21:55:13.248Z,8.09
2023-05-03T22:00:19.909Z,7.98
2023-05-03T22:05:24.376Z,7.89
2023-05-03T22:10:27.394Z,7.86
2023-05-03T22:15:32.112Z,7.78
2023-05-03T22:20:36.388Z,7.74
2023-05-03T22:25:39.282Z,7.52
2023-05-03T22:30:42.508Z,7.41
2023-05-03T22:35:46.990Z,7.44
2023-05-03T22:40:49.873Z,7.24
2023-05-03T22:45:52.786Z,7.24
2023-05-03T22:50:57.146Z,7.20
2023-05-03T22:56:01.397Z,7.11
2023-05-03T23:01:04.622Z,6.90
2023-05-03T23:06:09.077Z,6.94
2023-05-03T23:11:12.157Z,6.79
2023-05-03T23:16:15.453Z,6.71
2023-05-03T23:21:19.737Z,6.61
2023-05-03T23:26:22.639Z,6.54
2023-05-03T23:31:26.051Z,6.56
2023-05-03T23:36:31.397Z,6.39
2023-05-03T23:41:34.284Z,6.25
2023-05-03T23:46:37.784Z,6.37
2023-05-03T23:51:42.089Z,6.29
2023-05-03T23:56:44.938Z,6.14
